Hauptseite
METAR-TAF:

METAR-TAF

Flughäfen :

Flughafen Antonio B. Won Pat

Hagåtña, Guam, Vereinigte Staaten

Breite: 13-29N, Länge: 144-48E, Höhe: 91 m

Beobachtung

Neuester Wetterbericht von vor 45 Minuten, um 12:54 UTC
Wind 10 kt aus Ost/Nordost
Temperatur 28°C
Luftfeuchtigkeit 94%
Luftdruck 1007 hPa
Sichtweite: 16.1 km
Leicht bewölkt in der Höhe von 2300 ft
Aufgelockert bewölkt in der Höhe von 3300 ft

METAR: PGUM 191254Z 06010KT 10SM FEW023 SCT033 28/27 A2974 RMK AO2 SLP061 T02830272 $

Zeit: 23:39 (13:39 UTC)

Prognose

Neuester Wetterbericht von vor 2 Stunden und 11 Minuten, um 11:28 UTC
Gültige Prognose vom 19 um 12 UTC bis 20 um 18 UTC
Wind 9 kt aus Ost/Nordost
Sichtweite: 10 km
Leicht bewölkt in der Höhe von 1800 ft
Durchbrochene Bewölkung in der Höhe von 20000 ft
Schauer in der Nähe

TAF: PGUM 191128Z 1912/2018 06009KT P6SM VCSH FEW018 BKN200

Wetterbeobachtungen und Prognosen von mehr als 4000 Flughäfen (METAR und TAF Bericht).

Die verfügbaren Stationen werden durch gelbe und rote Markierungen auf der Karte dargestellt.

Führen Sie die Maus auf sie, um den Namen der Station zu sehen.

Darauf klicken, um die Beobachtung von Wetterbeobachtungen und Prognosen zu sehen.

Um die Karte zu ändern : klicken Sie auf den grünen Tasten mit einem schwarzen Kreuz Zum Vergrößern, auf den grünen Button mit einem Gedankenstrich zu verkleinern, oder auf die grünen Pfeile für benachbarte Karten.


METAR-TAF: